Terminal Aerodrome Forecast
Issued by NWS Green Bay, WI

Home | Current Version | Previous Version | Text Only | Print | Product List | Glossary Off
Versions: 1 2 3 4 5 6 7 8 9 10 11 12 13 14 15 16 17 18 19 20 21 22 23 24 25 26 27 28 29 30 31 32

000
FTUS43 KGRB 281138
TAFGRB
TAF
KGRB 281138Z 2812/0112 14006KT 4SM -RA BR SCT025 OVC040
      TEMPO 2812/2814 BKN025
     FM281400 14006KT 3SM BR OVC015
     FM281600 14005KT 1 1/2SM BR VCSH OVC007
     FM282200 01008KT 1 1/2SM -RA BR OVC006
      TEMPO 2822/0102 1/2SM FG OVC003
     FM010500 01015G22KT 2SM -RA BR OVC006
     FM011000 01015G22KT 2SM -SN OVC006=

USA.gov is the U.S. government's official web portal to all federal, state and local government web resources and services.